createdAt,value
2018-06-23T00:01:19.489Z,97606.27
2018-06-23T00:03:46.633Z,97609.72
2018-06-23T00:06:13.768Z,97609.05
2018-06-23T00:08:40.919Z,97608.55
2018-06-23T00:11:08.059Z,97608.43
2018-06-23T00:13:35.189Z,97614.22
2018-06-23T00:16:02.258Z,97609.13
2018-06-23T00:18:29.452Z,97618.59
2018-06-23T00:20:56.585Z,97619.06
2018-06-23T00:23:23.708Z,97612.31
2018-06-23T00:25:56.546Z,97610.59
2018-06-23T00:28:23.712Z,97613.89
2018-06-23T00:30:50.875Z,97609.92
2018-06-23T00:33:18.007Z,97609.95
2018-06-23T00:35:45.120Z,97621.53
2018-06-23T00:38:12.281Z,97611.97
2018-06-23T00:40:39.420Z,97614.61
2018-06-23T00:43:06.538Z,97614.15
2018-06-23T00:45:33.661Z,97611.02
2018-06-23T00:48:00.782Z,97611.51
2018-06-23T00:50:27.925Z,97613.37
2018-06-23T00:52:55.045Z,97609.99
2018-06-23T00:55:22.183Z,97608.48
2018-06-23T00:57:49.263Z,97593.21
2018-06-23T01:00:17.500Z,97606.81
2018-06-23T01:02:44.641Z,97605.41
2018-06-23T01:05:11.753Z,97596.12
2018-06-23T01:07:38.868Z,97606.08
2018-06-23T01:10:06.200Z,97602.54
2018-06-23T01:12:33.356Z,97602.34
2018-06-23T01:15:00.479Z,97599.26
2018-06-23T01:17:27.624Z,97603.32
2018-06-23T01:19:54.744Z,97602.46
2018-06-23T01:22:21.953Z,97601.29
2018-06-23T01:24:49.120Z,97600.67
2018-06-23T01:27:16.291Z,97606.08
2018-06-23T01:29:43.455Z,97605.10
2018-06-23T01:32:10.615Z,97601.28
2018-06-23T01:34:37.712Z,97606.23
2018-06-23T01:37:04.836Z,97608.34
2018-06-23T01:39:31.984Z,97593.97
2018-06-23T01:41:59.135Z,97602.12
2018-06-23T01:44:26.473Z,97599.49
2018-06-23T01:46:53.575Z,97533.86
2018-06-23T01:49:20.719Z,97599.28
2018-06-23T01:51:47.864Z,97597.80
2018-06-23T01:54:15.046Z,97595.41
2018-06-23T01:56:42.184Z,97596.73
2018-06-23T01:59:09.372Z,97599.41
2018-06-23T02:01:36.601Z,97600.98
2018-06-23T02:04:03.920Z,97602.47
2018-06-23T02:06:31.124Z,97594.23
2018-06-23T02:08:58.251Z,97595.50
2018-06-23T02:11:25.408Z,97589.58
2018-06-23T02:13:58.393Z,97594.19
2018-06-23T02:16:31.268Z,97585.13
2018-06-23T02:19:03.968Z,97588.95
2018-06-23T02:21:37.035Z,97582.44
2018-06-23T02:24:09.825Z,97575.17
2018-06-23T02:26:42.832Z,97582.84
2018-06-23T02:29:15.791Z,97580.54
2018-06-23T02:31:48.518Z,97581.05
2018-06-23T02:34:21.594Z,97577.62
2018-06-23T02:36:48.772Z,97574.78
2018-06-23T02:39:15.868Z,97579.02
2018-06-23T02:41:43.004Z,97568.59
2018-06-23T02:44:10.155Z,97573.50
2018-06-23T02:46:37.337Z,97579.27
2018-06-23T02:49:04.588Z,97575.59
2018-06-23T02:51:31.703Z,97575.78
2018-06-23T02:53:58.852Z,97575.17
2018-06-23T02:56:25.973Z,97573.62
2018-06-23T02:58:53.116Z,97574.48
2018-06-23T03:01:20.332Z,97567.44
2018-06-23T03:03:47.512Z,97573.28
2018-06-23T03:06:14.637Z,97571.11
2018-06-23T03:08:41.761Z,97577.95
2018-06-23T03:11:09.236Z,97572.86
2018-06-23T03:13:36.376Z,97578.44
2018-06-23T03:16:03.567Z,97578.16
2018-06-23T03:18:30.646Z,97576.47
2018-06-23T03:20:57.815Z,97578.65
2018-06-23T03:23:25.036Z,97578.07
2018-06-23T03:25:52.191Z,97586.68
2018-06-23T03:28:19.381Z,97584.20
2018-06-23T03:30:46.830Z,97585.08
2018-06-23T03:33:13.984Z,97587.63
2018-06-23T03:35:41.144Z,97589.86
2018-06-23T03:38:08.336Z,97591.80
2018-06-23T03:40:35.545Z,97598.97
2018-06-23T03:43:02.710Z,97591.31
2018-06-23T03:45:29.825Z,97584.40
2018-06-23T03:47:56.964Z,97590.41
2018-06-23T03:50:24.133Z,97594.93
2018-06-23T03:52:51.333Z,97583.80
2018-06-23T03:55:18.460Z,97588.09
2018-06-23T03:57:45.581Z,97594.69
2018-06-23T04:00:12.831Z,97591.97
2018-06-23T04:02:39.985Z,97580.78
2018-06-23T04:05:07.125Z,97591.74
2018-06-23T04:07:34.497Z,97593.22
2018-06-23T04:10:01.658Z,97599.50
2018-06-23T04:12:28.808Z,97600.74
2018-06-23T04:14:55.921Z,97589.17
2018-06-23T04:17:23.136Z,97590.84
2018-06-23T04:19:50.368Z,97592.89
2018-06-23T04:22:17.520Z,97598.71
2018-06-23T04:24:44.671Z,97601.59
2018-06-23T04:27:11.904Z,97602.70
2018-06-23T04:29:39.016Z,97596.69
2018-06-23T04:32:06.162Z,97596.59
2018-06-23T04:34:33.285Z,97600.58
2018-06-23T04:37:00.480Z,97600.67
2018-06-23T04:39:27.652Z,97600.12
2018-06-23T04:41:54.792Z,97599.06
2018-06-23T04:44:21.908Z,97599.84
2018-06-23T04:46:49.035Z,97603.44
2018-06-23T04:49:16.180Z,97605.67
2018-06-23T04:51:43.401Z,97599.36
2018-06-23T04:54:10.543Z,97608.55
2018-06-23T04:56:37.705Z,97607.66
2018-06-23T04:59:04.832Z,97601.58
2018-06-23T05:01:32.091Z,97607.45
2018-06-23T05:03:59.164Z,97608.05
2018-06-23T05:06:26.274Z,97602.22
2018-06-23T05:08:53.452Z,97600.80
2018-06-23T05:11:20.620Z,97594.53
2018-06-23T05:13:47.733Z,97599.26
2018-06-23T05:16:14.863Z,97600.25
2018-06-23T05:18:42.056Z,97603.80
2018-06-23T05:21:09.191Z,97601.58
2018-06-23T05:23:36.347Z,97602.07
2018-06-23T05:26:03.504Z,97604.03
2018-06-23T05:28:30.605Z,97604.58
2018-06-23T05:30:57.752Z,97602.80
2018-06-23T05:33:24.829Z,97596.23
2018-06-23T05:35:52.493Z,97599.42
2018-06-23T05:38:19.621Z,97589.86
2018-06-23T05:40:46.753Z,97599.42
2018-06-23T05:43:13.896Z,97589.02
2018-06-23T05:45:41.068Z,97596.30
2018-06-23T05:48:08.656Z,97595.04
2018-06-23T05:50:35.844Z,97599.34
2018-06-23T05:53:03.005Z,97603.46
2018-06-23T05:55:30.169Z,97599.04
2018-06-23T05:57:57.388Z,97608.99
2018-06-23T06:00:24.604Z,97611.78
2018-06-23T06:02:51.779Z,97618.95
2018-06-23T06:05:19.016Z,97610.02
2018-06-23T06:07:46.076Z,97617.54
2018-06-23T06:10:13.217Z,97611.30
2018-06-23T06:12:40.367Z,97620.28
2018-06-23T06:15:08.360Z,97621.59
2018-06-23T06:17:38.461Z,97626.38
2018-06-23T06:20:08.045Z,97627.94
2018-06-23T06:22:36.325Z,97623.93
2018-06-23T06:25:04.213Z,97622.54
2018-06-23T06:27:31.363Z,97622.80
2018-06-23T06:29:58.849Z,97617.22
2018-06-23T06:32:26.568Z,97613.41
2018-06-23T06:34:53.725Z,97615.16
2018-06-23T06:37:20.923Z,97618.02
2018-06-23T06:39:48.091Z,97619.76
2018-06-23T06:42:15.490Z,97612.78
2018-06-23T06:44:42.711Z,97627.98
2018-06-23T06:47:11.074Z,97631.72
2018-06-23T06:49:38.297Z,97610.07
2018-06-23T06:52:05.723Z,97618.13
2018-06-23T06:54:32.908Z,97630.56
2018-06-23T06:57:00.076Z,97628.99
2018-06-23T06:59:27.203Z,97632.31
2018-06-23T07:01:54.356Z,97624.75
2018-06-23T07:04:21.488Z,97610.65
2018-06-23T07:06:48.629Z,97619.59
2018-06-23T07:09:15.793Z,97611.94
2018-06-23T07:11:43.788Z,97603.01
2018-06-23T07:14:10.915Z,97616.63
2018-06-23T07:16:38.940Z,97618.42
2018-06-23T07:19:06.097Z,97620.88
2018-06-23T07:21:33.413Z,97616.47
2018-06-23T07:24:01.166Z,97611.12
2018-06-23T07:26:28.233Z,97604.91
2018-06-23T07:28:55.519Z,97609.52
2018-06-23T07:31:22.740Z,97608.05
2018-06-23T07:33:50.413Z,97598.79
2018-06-23T07:36:17.664Z,97591.84
2018-06-23T07:38:44.865Z,97592.98
2018-06-23T07:41:11.996Z,97594.00
2018-06-23T07:43:39.125Z,97590.50
2018-06-23T07:46:06.407Z,97591.09
2018-06-23T07:48:33.551Z,97587.63
2018-06-23T07:51:00.703Z,97593.64
2018-06-23T07:53:28.238Z,97602.03
2018-06-23T07:55:55.457Z,97599.22
2018-06-23T07:58:22.601Z,97601.56
2018-06-23T08:00:49.749Z,97609.83
2018-06-23T08:03:16.864Z,97619.23
2018-06-23T08:05:44.051Z,97617.06
2018-06-23T08:08:11.141Z,97614.42
2018-06-23T08:10:38.624Z,97615.57
2018-06-23T08:13:06.350Z,97612.41
2018-06-23T08:15:33.504Z,97617.59
2018-06-23T08:18:00.648Z,97604.84
2018-06-23T08:20:27.799Z,97617.54
2018-06-23T08:22:54.914Z,97618.38
2018-06-23T08:25:22.061Z,97626.28
2018-06-23T08:27:49.140Z,97635.20
2018-06-23T08:30:16.246Z,97632.55
2018-06-23T08:32:43.408Z,97618.34
2018-06-23T08:35:10.541Z,97630.63
2018-06-23T08:37:37.752Z,97619.07
2018-06-23T08:40:04.905Z,97626.70
2018-06-23T08:42:32.070Z,97612.48
2018-06-23T08:44:59.156Z,97612.86
2018-06-23T08:47:33.266Z,97615.47
2018-06-23T08:50:00.477Z,97615.09
2018-06-23T08:52:27.631Z,97601.41
2018-06-23T08:54:54.765Z,97594.15
2018-06-23T08:57:21.951Z,97594.61
2018-06-23T08:59:49.085Z,97597.49
2018-06-23T09:02:16.248Z,97595.41
2018-06-23T09:04:43.335Z,97592.67
2018-06-23T09:07:10.519Z,97582.66
2018-06-23T09:09:37.757Z,97588.24
2018-06-23T09:12:04.983Z,97596.73
2018-06-23T09:14:32.613Z,97599.56
2018-06-23T09:16:59.799Z,97603.30
2018-06-23T09:19:26.977Z,97593.14
2018-06-23T09:21:54.178Z,97589.80
2018-06-23T09:24:21.316Z,97570.97
2018-06-23T09:26:48.468Z,97581.84
2018-06-23T09:29:15.612Z,97584.23
2018-06-23T09:31:42.817Z,97587.96
2018-06-23T09:34:09.925Z,97590.45
2018-06-23T09:36:37.075Z,97582.17
2018-06-23T09:39:06.752Z,97575.66
2018-06-23T09:41:33.956Z,97574.62
2018-06-23T09:44:01.173Z,97571.52
2018-06-23T09:46:28.309Z,97570.33
2018-06-23T09:48:55.500Z,97567.91
2018-06-23T09:51:22.640Z,97570.31
2018-06-23T09:53:49.787Z,97568.59
2018-06-23T09:56:16.944Z,97570.75
2018-06-23T09:58:44.065Z,97569.76
2018-06-23T10:01:11.209Z,97560.52
2018-06-23T10:03:38.330Z,97567.30
2018-06-23T10:06:05.472Z,97569.44
2018-06-23T10:08:32.694Z,97572.01
2018-06-23T10:10:59.836Z,97567.74
2018-06-23T10:13:26.961Z,97569.33
2018-06-23T10:15:54.121Z,97572.44
2018-06-23T10:18:21.237Z,97572.23
2018-06-23T10:20:48.405Z,97569.66
2018-06-23T10:23:15.558Z,97575.57
2018-06-23T10:25:42.686Z,97566.00
2018-06-23T10:28:09.837Z,97577.70
2018-06-23T10:30:36.946Z,97567.77
2018-06-23T10:33:04.161Z,97569.97
2018-06-23T10:35:31.283Z,97566.56
2018-06-23T10:37:58.499Z,97561.78
2018-06-23T10:40:25.602Z,97556.30
2018-06-23T10:42:52.798Z,97556.26
2018-06-23T10:47:53.841Z,97552.55
2018-06-23T10:50:20.971Z,97555.42
2018-06-23T10:52:48.180Z,97542.80
2018-06-23T10:55:15.316Z,97552.07
2018-06-23T10:57:42.498Z,97548.98
2018-06-23T11:00:09.633Z,97558.27
2018-06-23T11:02:36.824Z,97561.59
2018-06-23T11:05:04.220Z,97557.97
2018-06-23T11:07:31.384Z,97563.91
2018-06-23T11:09:58.552Z,97571.64
2018-06-23T11:12:25.714Z,97567.73
2018-06-23T11:14:53.116Z,97563.26
2018-06-23T11:17:20.342Z,97568.61
2018-06-23T11:19:47.449Z,97561.58
2018-06-23T11:22:14.553Z,97565.80
2018-06-23T11:24:48.531Z,97568.47
2018-06-23T11:27:15.653Z,97570.35
2018-06-23T11:29:43.064Z,97573.02
2018-06-23T11:32:10.233Z,97573.83
2018-06-23T11:34:37.403Z,97587.00
2018-06-23T11:37:04.913Z,97587.19
2018-06-23T11:39:32.096Z,97579.05
2018-06-23T11:41:59.300Z,97574.50
2018-06-23T11:44:26.471Z,97576.05
2018-06-23T11:46:53.598Z,97581.80
2018-06-23T11:49:20.732Z,97583.28
2018-06-23T11:51:47.927Z,97574.67
2018-06-23T11:54:15.116Z,97562.86
2018-06-23T11:56:42.313Z,97568.88
2018-06-23T11:59:09.425Z,97563.81
2018-06-23T12:01:36.620Z,97557.70
2018-06-23T12:04:03.766Z,97553.37
2018-06-23T12:06:30.887Z,97552.78
2018-06-23T12:08:58.018Z,97551.31
2018-06-23T12:11:25.169Z,97554.86
2018-06-23T12:13:52.260Z,97551.61
2018-06-23T12:16:19.411Z,97548.13
2018-06-23T12:18:46.549Z,97541.37
2018-06-23T12:21:13.702Z,97539.86
2018-06-23T12:23:40.928Z,97544.25
2018-06-23T12:26:08.100Z,97540.44
2018-06-23T12:28:35.240Z,97547.64
2018-06-23T12:31:02.423Z,97546.41
2018-06-23T12:33:29.533Z,97547.56
2018-06-23T12:35:56.671Z,97541.66
2018-06-23T12:38:23.824Z,97541.36
2018-06-23T12:40:50.973Z,97541.14
2018-06-23T12:43:18.060Z,97534.98
2018-06-23T12:45:45.260Z,97533.99
2018-06-23T12:48:12.416Z,97524.77
2018-06-23T12:50:39.605Z,97533.25
2018-06-23T12:53:06.799Z,97532.66
2018-06-23T12:55:33.881Z,97532.72
2018-06-23T12:58:01.034Z,97525.30
2018-06-23T13:00:28.202Z,97530.17
2018-06-23T13:02:55.453Z,97523.65
2018-06-23T13:05:22.657Z,97519.11
2018-06-23T13:07:49.868Z,97516.95
2018-06-23T13:10:17.079Z,97520.02
2018-06-23T13:12:44.289Z,97516.61
2018-06-23T13:15:11.492Z,97520.20
2018-06-23T13:17:38.693Z,97517.18
2018-06-23T13:20:05.901Z,97517.89
2018-06-23T13:22:33.034Z,97518.84
2018-06-23T13:25:00.201Z,97515.81
2018-06-23T13:27:27.464Z,97522.77
2018-06-23T13:29:54.733Z,97517.89
2018-06-23T13:32:21.943Z,97522.06
2018-06-23T13:34:49.189Z,97519.94
2018-06-23T13:37:16.296Z,97519.05
2018-06-23T13:39:43.561Z,97523.22
2018-06-23T13:42:10.829Z,97521.12
2018-06-23T13:44:37.960Z,97519.36
2018-06-23T13:47:05.171Z,97514.11
2018-06-23T13:49:32.370Z,97517.75
2018-06-23T13:51:59.503Z,97509.06
2018-06-23T13:54:26.703Z,97513.12
2018-06-23T13:56:53.988Z,97508.41
2018-06-23T13:59:21.115Z,97506.17
2018-06-23T14:01:48.296Z,97504.03
2018-06-23T14:04:15.650Z,97521.89
2018-06-23T14:06:42.809Z,97513.42
2018-06-23T14:09:11.395Z,97509.47
2018-06-23T14:11:38.679Z,97504.61
2018-06-23T14:14:05.896Z,97513.93
2018-06-23T14:16:33.230Z,97510.27
2018-06-23T14:19:00.410Z,97507.06
2018-06-23T14:21:27.784Z,97505.11
2018-06-23T14:23:54.989Z,97505.56
2018-06-23T14:26:22.187Z,97507.24
2018-06-23T14:28:49.399Z,97515.84
2018-06-23T14:31:16.636Z,97509.63
2018-06-23T14:33:43.852Z,97508.23
2018-06-23T14:36:11.021Z,97506.01
2018-06-23T14:38:38.226Z,97507.67
2018-06-23T14:41:05.473Z,97504.89
2018-06-23T14:43:32.687Z,97511.52
2018-06-23T14:45:59.851Z,97511.34
2018-06-23T14:48:27.048Z,97506.94
2018-06-23T14:50:54.236Z,97507.43
2018-06-23T14:53:21.406Z,97506.32
2018-06-23T14:55:48.582Z,97501.33
2018-06-23T14:58:15.774Z,97497.80
2018-06-23T15:00:42.951Z,97493.89
2018-06-23T15:03:10.117Z,97494.02
2018-06-23T15:05:37.303Z,97489.56
2018-06-23T15:08:16.277Z,97485.75
2018-06-23T15:10:55.021Z,97492.19
2018-06-23T15:13:22.185Z,97489.34
2018-06-23T15:15:49.344Z,97487.98
2018-06-23T15:18:16.472Z,97495.16
2018-06-23T15:20:43.612Z,97498.38
2018-06-23T15:23:11.025Z,97496.52
2018-06-23T15:25:38.247Z,97505.15
2018-06-23T15:28:05.454Z,97509.61
2018-06-23T15:30:32.674Z,97506.14
2018-06-23T15:32:59.973Z,97507.56
2018-06-23T15:35:27.181Z,97505.12
2018-06-23T15:37:54.410Z,97513.39
2018-06-23T15:40:21.669Z,97510.64
2018-06-23T15:42:49.005Z,97510.73
2018-06-23T15:45:16.518Z,97505.92
2018-06-23T15:47:44.045Z,97506.03
2018-06-23T15:50:11.252Z,97506.56
2018-06-23T15:52:39.284Z,97508.16
2018-06-23T15:55:06.441Z,97494.41
2018-06-23T15:57:33.633Z,97501.84
2018-06-23T16:00:00.833Z,97500.37
2018-06-23T16:02:28.041Z,97487.45
2018-06-23T16:04:58.407Z,97494.34
2018-06-23T16:07:26.080Z,97490.99
2018-06-23T16:09:53.632Z,97495.28
2018-06-23T16:12:21.119Z,97500.52
2018-06-23T16:14:48.331Z,97502.35
2018-06-23T16:17:15.782Z,97503.69
2018-06-23T16:19:43.019Z,97514.36
2018-06-23T16:22:10.193Z,97529.23
2018-06-23T16:24:37.349Z,97539.03
2018-06-23T16:27:04.492Z,97529.28
2018-06-23T16:29:31.665Z,97530.83
2018-06-23T16:31:58.892Z,97525.20
2018-06-23T16:34:26.088Z,97519.71
2018-06-23T16:36:53.309Z,97522.55
2018-06-23T16:39:20.457Z,97508.28
2018-06-23T16:41:47.652Z,97511.22
2018-06-23T16:44:14.825Z,97520.17
2018-06-23T16:46:42.042Z,97471.84
2018-06-23T16:49:09.292Z,97511.54
2018-06-23T16:51:36.662Z,97509.20
2018-06-23T16:54:03.828Z,97520.56
2018-06-23T16:56:31.052Z,97508.36
2018-06-23T16:58:58.244Z,97514.36
2018-06-23T17:01:25.534Z,97512.79
2018-06-23T17:03:52.782Z,97513.24
2018-06-23T17:06:19.958Z,97509.53
2018-06-23T17:08:47.099Z,97509.05
2018-06-23T17:11:14.321Z,97506.38
2018-06-23T17:13:41.478Z,97507.94
2018-06-23T17:16:08.660Z,97503.88
2018-06-23T17:18:35.824Z,97501.46
2018-06-23T17:21:03.032Z,97501.47
2018-06-23T17:23:30.183Z,97502.63
2018-06-23T17:25:57.332Z,97498.27
2018-06-23T17:28:24.494Z,97495.06
2018-06-23T17:30:51.629Z,97491.70
2018-06-23T17:33:18.822Z,97499.66
2018-06-23T17:35:45.993Z,97488.92
2018-06-23T17:38:13.105Z,97499.69
2018-06-23T17:40:40.236Z,97504.02
2018-06-23T17:43:07.436Z,97490.77
2018-06-23T17:45:34.591Z,97498.03
2018-06-23T17:48:01.776Z,97487.80
2018-06-23T17:50:28.948Z,97493.27
2018-06-23T17:52:56.135Z,97493.67
2018-06-23T17:55:23.305Z,97499.05
2018-06-23T17:57:50.683Z,97488.34
2018-06-23T18:00:17.711Z,97492.24
2018-06-23T18:02:45.056Z,97499.66
2018-06-23T18:05:12.184Z,97485.22
2018-06-23T18:07:39.352Z,97495.30
2018-06-23T18:10:06.540Z,97492.41
2018-06-23T18:12:33.720Z,97492.02
2018-06-23T18:15:00.833Z,97484.90
2018-06-23T18:17:27.964Z,97489.44
2018-06-23T18:19:55.105Z,97484.75
2018-06-23T18:22:22.259Z,97473.36
2018-06-23T18:24:49.391Z,97472.34
2018-06-23T18:27:16.500Z,97483.52
2018-06-23T18:29:43.684Z,97473.83
2018-06-23T18:32:10.842Z,97483.81
2018-06-23T18:34:37.973Z,97481.86
2018-06-23T18:37:05.133Z,97482.41
2018-06-23T18:39:32.318Z,97477.73
2018-06-23T18:41:59.493Z,97482.80
2018-06-23T18:44:26.644Z,97483.88
2018-06-23T18:46:54.196Z,97482.48
2018-06-23T18:49:21.380Z,97483.66
2018-06-23T18:51:48.527Z,97484.05
2018-06-23T18:54:15.743Z,97487.27
2018-06-23T18:56:42.881Z,97486.88
2018-06-23T18:59:10.058Z,97483.75
2018-06-23T19:01:37.432Z,97483.03
2018-06-23T19:04:04.829Z,97482.19
2018-06-23T19:06:32.094Z,97484.05
2018-06-23T19:08:59.259Z,97488.28
2018-06-23T19:11:26.472Z,97475.38
2018-06-23T19:13:53.607Z,97487.09
2018-06-23T19:16:20.904Z,97488.02
2018-06-23T19:18:48.047Z,97489.36
2018-06-23T19:21:15.263Z,97494.25
2018-06-23T19:23:42.369Z,97494.94
2018-06-23T19:26:09.517Z,97495.11
2018-06-23T19:28:36.712Z,97496.45
2018-06-23T19:31:03.811Z,97495.46
2018-06-23T19:33:31.039Z,97499.58
2018-06-23T19:35:58.151Z,97496.08
2018-06-23T19:38:25.336Z,97496.80
2018-06-23T19:40:52.513Z,97502.33
2018-06-23T19:43:19.621Z,97503.71
2018-06-23T19:45:46.735Z,97506.69
2018-06-23T19:48:13.824Z,97504.19
2018-06-23T19:50:40.969Z,97502.79
2018-06-23T19:53:08.160Z,97503.80
2018-06-23T19:55:35.291Z,97499.82
2018-06-23T19:58:02.415Z,97506.86
2018-06-23T20:00:29.626Z,97498.98
2018-06-23T20:02:56.833Z,97498.89
2018-06-23T20:05:24.080Z,97507.88
2018-06-23T20:07:51.255Z,97504.05
2018-06-23T20:10:18.442Z,97509.83
2018-06-23T20:12:45.592Z,97508.48
2018-06-23T20:15:12.865Z,97505.88
2018-06-23T20:17:40.077Z,97506.66
2018-06-23T20:20:07.315Z,97508.09
2018-06-23T20:22:34.511Z,97506.44
2018-06-23T20:25:01.788Z,97508.14
2018-06-23T20:27:28.932Z,97505.06
2018-06-23T20:29:56.505Z,97509.59
2018-06-23T20:32:23.813Z,97509.44
2018-06-23T20:34:51.005Z,97504.50
2018-06-23T20:37:18.176Z,97507.01
2018-06-23T20:39:45.351Z,97515.54
2018-06-23T20:42:12.516Z,97516.60
2018-06-23T20:44:39.720Z,97520.50
2018-06-23T20:47:06.829Z,97521.67
2018-06-23T20:49:34.035Z,97527.12
2018-06-23T20:52:01.576Z,97525.61
2018-06-23T20:54:29.012Z,97528.00
2018-06-23T20:56:56.296Z,97529.55
2018-06-23T20:59:23.463Z,97523.63
2018-06-23T21:01:50.620Z,97522.14
2018-06-23T21:04:17.844Z,97522.63
2018-06-23T21:06:45.037Z,97518.53
2018-06-23T21:09:12.228Z,97517.59
2018-06-23T21:11:39.476Z,97516.03
2018-06-23T21:14:06.969Z,97522.75
2018-06-23T21:16:34.200Z,97510.89
2018-06-23T21:19:01.478Z,97520.52
2018-06-23T21:21:28.751Z,97517.45
2018-06-23T21:23:55.996Z,97516.70
2018-06-23T21:26:23.355Z,97517.64
2018-06-23T21:28:50.566Z,97518.94
2018-06-23T21:31:17.700Z,97514.44
2018-06-23T21:33:45.004Z,97513.97
2018-06-23T21:36:12.181Z,97511.63
2018-06-23T21:38:39.383Z,97498.26
2018-06-23T21:41:06.763Z,97506.88
2018-06-23T21:43:33.943Z,97507.42
2018-06-23T21:46:01.111Z,97506.17
2018-06-23T21:48:28.246Z,97502.55
2018-06-23T21:50:55.420Z,97502.00
2018-06-23T21:53:22.595Z,97502.70
2018-06-23T21:55:49.783Z,97498.80
2018-06-23T21:58:17.649Z,97497.12
2018-06-23T22:00:45.325Z,97496.50
2018-06-23T22:03:13.536Z,97490.61
2018-06-23T22:05:40.785Z,97485.43
2018-06-23T22:08:08.475Z,97487.96
2018-06-23T22:10:35.737Z,97483.43
2018-06-23T22:13:03.184Z,97486.55
2018-06-23T22:15:30.412Z,97485.23
2018-06-23T22:17:57.554Z,97484.02
2018-06-23T22:20:24.801Z,97477.90
2018-06-23T22:22:52.406Z,97485.86
2018-06-23T22:25:19.878Z,97476.65
2018-06-23T22:27:47.070Z,97471.73
2018-06-23T22:30:14.418Z,97469.08
2018-06-23T22:32:41.644Z,97472.72
2018-06-23T22:35:09.281Z,97474.36
2018-06-23T22:37:36.899Z,97471.63
2018-06-23T22:40:04.132Z,97474.59
2018-06-23T22:42:31.321Z,97473.11
2018-06-23T22:44:58.724Z,97468.22
2018-06-23T22:47:25.841Z,97464.48
2018-06-23T22:49:53.015Z,97467.52
2018-06-23T22:52:20.245Z,97466.17
2018-06-23T22:54:47.733Z,97462.81
2018-06-23T22:57:15.230Z,97462.61
2018-06-23T22:59:42.418Z,97460.48
2018-06-23T23:02:09.585Z,97467.34
2018-06-23T23:04:36.832Z,97454.85
2018-06-23T23:07:04.164Z,97450.41
2018-06-23T23:09:31.331Z,97459.14
2018-06-23T23:11:58.452Z,97453.64
2018-06-23T23:14:25.599Z,97455.95
2018-06-23T23:16:52.776Z,97454.08
2018-06-23T23:19:19.921Z,97451.86
2018-06-23T23:21:47.090Z,97461.61
2018-06-23T23:24:14.257Z,97455.68
2018-06-23T23:26:41.479Z,97450.72
2018-06-23T23:29:08.612Z,97452.16
2018-06-23T23:31:35.745Z,97454.97
2018-06-23T23:34:02.900Z,97450.84
2018-06-23T23:36:30.012Z,97459.61
2018-06-23T23:38:57.109Z,97461.41
2018-06-23T23:41:24.281Z,97454.31
2018-06-23T23:43:51.415Z,97452.09
2018-06-23T23:46:18.560Z,97454.16
2018-06-23T23:48:45.704Z,97455.72
2018-06-23T23:51:12.810Z,97455.72
2018-06-23T23:53:39.968Z,97451.47
2018-06-23T23:56:07.151Z,97454.20
2018-06-23T23:58:34.269Z,97454.08
